Time;durP1;ratioP1;P1;durP2;ratioP2;P2;SDS_P1;SDS_P2;PMS_P1;PMS_P2;Temp;Humidity;BMP_temperature;BMP_pressure;BME280_temperature;BME280_humidity;BME280_pressure;Samples;Min_cycle;Max_cycle;Signal;HPM_P1;HPM_P2
2022/12/31 00:00:58;;;;;;;;;;;7.90;99.90;;;;;;5114920;28;19943;-84
2022/12/31 00:03:23;;;;;;;;;;;7.90;99.90;;;;;;5115323;28;20258;-79
2022/12/31 00:05:49;;;;;;;;;;;7.90;99.90;;;;;;5114158;28;19908;-79
2022/12/31 00:08:15;;;;;;;;;;;8.00;99.90;;;;;;5095077;28;19966;-81
2022/12/31 00:10:40;;;;;;;;;;;8.00;99.90;;;;;;5113904;28;19971;-79
2022/12/31 00:13:07;;;;;;;;;;;8.00;99.90;;;;;;5113423;28;20276;-80
2022/12/31 00:15:33;;;;;;;;;;;7.90;99.90;;;;;;5114031;28;20014;-80
2022/12/31 00:17:59;;;;;;;;;;;8.00;99.90;;;;;;5113713;28;20348;-85
2022/12/31 00:20:24;;;;;;;;;;;8.00;99.90;;;;;;5112677;28;19947;-80
2022/12/31 00:22:50;;;;;;;;;;;7.90;99.90;;;;;;5113533;28;20279;-80
2022/12/31 00:25:15;;;;;;;;;;;8.00;99.90;;;;;;5112610;28;19907;-80
2022/12/31 00:27:41;;;;;;;;;;;7.90;99.90;;;;;;5113639;28;19960;-80
2022/12/31 00:30:07;;;;;;;;;;;7.90;99.90;;;;;;5094240;28;20284;-79
2022/12/31 00:32:33;;;;;;;;;;;7.90;99.90;;;;;;5113676;28;19920;-80
2022/12/31 00:34:58;;;;;;;;;;;7.90;99.90;;;;;;5113190;28;20333;-83
2022/12/31 00:37:24;;;;;;;;;;;7.90;99.90;;;;;;5112645;28;20341;-81
2022/12/31 00:39:49;;;;;;;;;;;7.90;99.90;;;;;;5095003;28;19915;-82
2022/12/31 00:42:15;;;;;;;;;;;7.90;99.90;;;;;;5112740;28;19919;-82
2022/12/31 00:44:40;;;;;;;;;;;7.80;99.90;;;;;;5113263;28;19908;-81
2022/12/31 00:47:06;;;;;;;;;;;7.80;99.90;;;;;;5112509;28;19950;-82
2022/12/31 00:49:31;;;;;;;;;;;7.80;99.90;;;;;;5113156;28;20269;-82
2022/12/31 00:51:57;;;;;;;;;;;7.80;99.90;;;;;;5094731;28;20155;-83
2022/12/31 00:54:23;;;;;;;;;;;7.80;99.90;;;;;;5112787;28;19915;-84
2022/12/31 00:56:48;;;;;;;;;;;7.70;99.90;;;;;;5113023;28;19934;-84
2022/12/31 00:59:14;;;;;;;;;;;7.70;99.90;;;;;;5112817;28;19915;-84
2022/12/31 01:01:40;;;;;;;;;;;7.70;99.90;;;;;;5112602;28;19945;-84
2022/12/31 01:04:07;;;;;;;;;;;7.70;99.90;;;;;;5094406;28;20272;-85
2022/12/31 01:06:33;;;;;;;;;;;7.70;99.90;;;;;;5113073;28;20002;-84
2022/12/31 01:08:59;;;;;;;;;;;7.60;99.90;;;;;;5094871;28;19966;-84
2022/12/31 01:11:28;;;;;;;;;;;7.60;99.90;;;;;;5112734;28;19925;-85
2022/12/31 01:14:03;;;;;;;;;;;7.60;99.90;;;;;;5113305;28;19912;-85
2022/12/31 01:16:29;;;;;;;;;;;7.60;99.90;;;;;;5112704;28;19929;-85
2022/12/31 01:18:56;;;;;;;;;;;7.60;99.90;;;;;;5113323;28;19907;-83
2022/12/31 01:21:22;;;;;;;;;;;7.60;99.90;;;;;;5112326;28;19943;-77
2022/12/31 01:23:48;;;;;;;;;;;7.50;99.90;;;;;;5112626;28;20296;-79
2022/12/31 01:26:14;;;;;;;;;;;7.50;99.90;;;;;;5112608;28;19990;-85
2022/12/31 01:28:40;;;;;;;;;;;7.50;99.90;;;;;;5104285;28;19912;-83
2022/12/31 01:31:09;;;;;;;;;;;7.50;99.90;;;;;;5091769;28;19920;-85
2022/12/31 01:33:35;;;;;;;;;;;7.50;99.90;;;;;;5092207;28;19912;-84
2022/12/31 01:36:02;;;;;;;;;;;7.50;99.90;;;;;;5092564;28;19998;-85
2022/12/31 01:38:28;;;;;;;;;;;7.50;99.90;;;;;;5092765;28;19916;-79
2022/12/31 01:40:53;;;;;;;;;;;7.50;99.90;;;;;;5093387;28;20369;-80
2022/12/31 01:43:19;;;;;;;;;;;7.50;99.90;;;;;;5093089;28;20012;-77
2022/12/31 01:45:46;;;;;;;;;;;7.50;99.90;;;;;;5092643;28;20014;-81
2022/12/31 01:48:14;;;;;;;;;;;7.50;99.90;;;;;;5092216;28;19951;-83
2022/12/31 01:50:40;;;;;;;;;;;7.40;99.90;;;;;;5092444;28;20026;-83
2022/12/31 01:53:06;;;;;;;;;;;7.40;99.90;;;;;;5092063;28;19912;-83
2022/12/31 01:55:34;;;;;;;;;;;7.50;99.90;;;;;;5092383;28;19927;-83
2022/12/31 01:58:05;;;;;;;;;;;7.40;99.90;;;;;;5092032;28;19908;-83
2022/12/31 02:00:31;;;;;;;;;;;7.40;99.90;;;;;;5091356;28;19908;-83
2022/12/31 02:02:57;;;;;;;;;;;7.40;99.90;;;;;;5091543;28;19980;-83
2022/12/31 02:05:28;;;;;;;;;;;7.40;99.90;;;;;;5091397;28;19964;-80
2022/12/31 02:07:54;;;;;;;;;;;7.40;99.90;;;;;;5092119;28;19986;-79
2022/12/31 02:10:19;;;;;;;;;;;7.40;99.90;;;;;;5091632;28;20369;-79
2022/12/31 02:12:45;;;;;;;;;;;7.30;99.90;;;;;;5091044;28;20053;-82
2022/12/31 02:15:10;;;;;;;;;;;7.40;99.90;;;;;;5090787;28;20332;-84
2022/12/31 02:17:45;;;;;;;;;;;7.30;99.90;;;;;;5091557;28;20273;-85
2022/12/31 02:20:30;;;;;;;;;;;7.30;99.90;;;;;;5090960;28;19912;-85
2022/12/31 02:23:02;;;;;;;;;;;7.30;99.90;;;;;;5091055;28;19954;-85
2022/12/31 02:25:46;;;;;;;;;;;7.30;99.90;;;;;;5095234;28;19965;-81
2022/12/31 02:28:12;;;;;;;;;;;7.30;99.90;;;;;;5100798;28;19966;-82
2022/12/31 02:30:38;;;;;;;;;;;7.30;99.90;;;;;;5095300;28;19920;-82
2022/12/31 02:33:09;;;;;;;;;;;7.30;99.90;;;;;;5100924;28;19911;-83
2022/12/31 02:35:35;;;;;;;;;;;7.30;99.90;;;;;;5135412;27;19991;-84
2022/12/31 02:38:06;;;;;;;;;;;7.20;99.90;;;;;;5135295;27;19965;-84
2022/12/31 02:40:33;;;;;;;;;;;7.20;99.90;;;;;;5122592;28;19919;-83
2022/12/31 02:42:58;;;;;;;;;;;7.20;99.90;;;;;;5111827;28;19915;-83
2022/12/31 02:45:32;;;;;;;;;;;7.20;99.90;;;;;;5115284;28;20008;-83
2022/12/31 02:48:10;;;;;;;;;;;7.20;99.90;;;;;;5115281;28;19912;-82
2022/12/31 02:51:02;;;;;;;;;;;7.20;99.90;;;;;;5116115;28;20357;-83
2022/12/31 02:53:46;;;;;;;;;;;7.20;99.90;;;;;;5110547;28;19915;-83
2022/12/31 02:56:16;;;;;;;;;;;7.20;99.90;;;;;;5115212;28;19912;-83
2022/12/31 03:04:33;;;;;;;;;;;7.20;99.90;;;;;;5114675;28;19972;-82
2022/12/31 03:07:09;;;;;;;;;;;7.20;99.90;;;;;;5114698;28;19912;-82
2022/12/31 03:09:35;;;;;;;;;;;7.20;99.90;;;;;;5114255;28;19919;-82
2022/12/31 03:14:47;;;;;;;;;;;7.10;99.90;;;;;;5114720;28;19961;-82
2022/12/31 03:17:12;;;;;;;;;;;7.20;99.90;;;;;;5114302;28;20291;-85
2022/12/31 03:22:28;;;;;;;;;;;7.10;99.90;;;;;;5113959;28;19914;-82
2022/12/31 03:27:48;;;;;;;;;;;7.10;99.90;;;;;;5114604;28;20334;-80
2022/12/31 03:30:15;;;;;;;;;;;7.10;99.90;;;;;;5114236;28;19912;-83
2022/12/31 03:32:41;;;;;;;;;;;7.10;99.90;;;;;;5114328;28;19918;-82
2022/12/31 03:35:07;;;;;;;;;;;7.10;99.90;;;;;;5113965;28;19907;-81
2022/12/31 03:37:33;;;;;;;;;;;7.10;99.90;;;;;;5113730;28;19910;-80
2022/12/31 03:39:58;;;;;;;;;;;7.10;99.90;;;;;;5113818;28;19916;-81
2022/12/31 03:42:24;;;;;;;;;;;7.10;99.90;;;;;;5113675;28;19971;-81
2022/12/31 03:44:49;;;;;;;;;;;7.00;99.90;;;;;;5113836;28;20276;-81
2022/12/31 03:47:15;;;;;;;;;;;7.00;99.90;;;;;;5113936;28;19915;-80
2022/12/31 03:49:40;;;;;;;;;;;7.00;99.90;;;;;;5113678;28;20309;-81
2022/12/31 03:52:07;;;;;;;;;;;7.00;99.90;;;;;;5113692;28;20176;-80
2022/12/31 03:54:33;;;;;;;;;;;7.00;99.90;;;;;;5113184;28;20558;-80
2022/12/31 03:56:58;;;;;;;;;;;7.00;99.90;;;;;;5114215;28;19951;-79
2022/12/31 03:59:24;;;;;;;;;;;7.00;99.90;;;;;;5113338;28;19944;-80
2022/12/31 04:01:50;;;;;;;;;;;7.00;99.90;;;;;;5113651;28;19908;-80
2022/12/31 04:04:15;;;;;;;;;;;7.00;99.90;;;;;;5109023;28;19912;-85
2022/12/31 04:06:41;;;;;;;;;;;7.00;99.90;;;;;;5093426;28;19908;-80
2022/12/31 04:09:06;;;;;;;;;;;7.00;99.90;;;;;;5093223;28;20004;-80
2022/12/31 04:11:32;;;;;;;;;;;7.00;99.90;;;;;;5093370;28;20250;-80
2022/12/31 04:13:58;;;;;;;;;;;7.00;99.90;;;;;;5093996;28;19916;-80
2022/12/31 04:16:23;;;;;;;;;;;7.00;99.90;;;;;;5093137;28;20310;-81
2022/12/31 04:18:49;;;;;;;;;;;7.00;99.90;;;;;;5093566;28;19926;-81
2022/12/31 04:21:15;;;;;;;;;;;7.00;99.90;;;;;;5093228;28;19939;-85
2022/12/31 04:23:40;;;;;;;;;;;7.00;99.90;;;;;;5092861;28;19908;-81
2022/12/31 04:26:06;;;;;;;;;;;7.00;99.90;;;;;;5093065;28;19999;-80
2022/12/31 04:28:31;;;;;;;;;;;7.00;99.90;;;;;;5092635;28;19908;-80
2022/12/31 04:30:57;;;;;;;;;;;7.00;99.90;;;;;;5092522;28;19919;-81
2022/12/31 04:33:22;;;;;;;;;;;7.00;99.90;;;;;;5092637;28;19912;-81
2022/12/31 04:35:48;;;;;;;;;;;7.00;99.90;;;;;;5093065;28;19923;-80
2022/12/31 04:38:13;;;;;;;;;;;7.00;99.90;;;;;;5092754;28;20327;-81
2022/12/31 04:41:15;;;;;;;;;;;7.00;99.90;;;;;;5092104;28;20031;-81
2022/12/31 04:43:24;;;;;;;;;;;6.90;99.90;;;;;;5091820;28;19995;-80
2022/12/31 04:45:50;;;;;;;;;;;6.90;99.90;;;;;;5092555;28;20068;-81
2022/12/31 04:48:15;;;;;;;;;;;6.90;99.90;;;;;;5092656;28;19908;-85
2022/12/31 04:50:41;;;;;;;;;;;6.90;99.90;;;;;;5091970;28;20002;-80
2022/12/31 04:53:07;;;;;;;;;;;6.90;99.90;;;;;;5092494;28;19935;-81
2022/12/31 04:55:32;;;;;;;;;;;6.90;99.90;;;;;;5074271;28;19969;-80
2022/12/31 04:57:58;;;;;;;;;;;6.90;99.90;;;;;;5093134;28;19919;-81
2022/12/31 05:00:23;;;;;;;;;;;6.90;99.90;;;;;;5092118;28;20375;-82
2022/12/31 05:02:49;;;;;;;;;;;6.90;99.90;;;;;;5092547;28;19961;-81
2022/12/31 05:05:14;;;;;;;;;;;6.80;99.90;;;;;;5093151;28;19914;-80
2022/12/31 05:07:40;;;;;;;;;;;6.90;99.90;;;;;;5091540;28;19912;-81
2022/12/31 05:10:05;;;;;;;;;;;6.90;99.90;;;;;;5092224;28;20351;-80
2022/12/31 05:12:31;;;;;;;;;;;6.90;99.90;;;;;;5091307;28;20027;-81
2022/12/31 05:14:57;;;;;;;;;;;6.90;99.90;;;;;;5074200;28;19912;-81
2022/12/31 05:17:22;;;;;;;;;;;6.90;99.90;;;;;;5091323;28;20262;-81
2022/12/31 05:19:48;;;;;;;;;;;6.90;99.90;;;;;;5092160;28;19912;-80
2022/12/31 05:22:28;;;;;;;;;;;6.90;99.90;;;;;;5091751;28;19947;-80
2022/12/31 05:24:54;;;;;;;;;;;6.90;99.90;;;;;;5091652;28;19930;-79
2022/12/31 05:27:20;;;;;;;;;;;6.90;99.90;;;;;;5091878;28;19912;-85
2022/12/31 05:29:46;;;;;;;;;;;6.90;99.90;;;;;;5091968;28;19943;-80
2022/12/31 05:32:11;;;;;;;;;;;6.90;99.90;;;;;;5091889;28;19966;-80
2022/12/31 05:34:37;;;;;;;;;;;6.90;99.90;;;;;;5091598;28;20086;-80
2022/12/31 05:37:02;;;;;;;;;;;6.90;99.90;;;;;;5073364;28;20005;-80
2022/12/31 05:39:28;;;;;;;;;;;6.90;99.90;;;;;;5090980;28;20060;-80
2022/12/31 05:41:53;;;;;;;;;;;6.90;99.90;;;;;;5100267;28;19896;-81
2022/12/31 05:44:19;;;;;;;;;;;6.90;99.90;;;;;;5111996;28;19908;-82
2022/12/31 05:46:46;;;;;;;;;;;6.90;99.90;;;;;;5093038;28;19916;-82
2022/12/31 05:49:11;;;;;;;;;;;6.90;99.90;;;;;;5091753;28;19927;-79
2022/12/31 05:51:37;;;;;;;;;;;6.80;99.90;;;;;;5091030;28;19912;-80
2022/12/31 05:54:02;;;;;;;;;;;6.90;99.90;;;;;;5092083;28;19938;-81
2022/12/31 05:56:28;;;;;;;;;;;6.90;99.90;;;;;;5090974;28;20359;-80
2022/12/31 05:58:54;;;;;;;;;;;6.90;99.90;;;;;;5091454;28;19915;-80
2022/12/31 06:01:19;;;;;;;;;;;6.90;99.90;;;;;;5091012;28;19924;-80
2022/12/31 06:03:45;;;;;;;;;;;6.80;99.90;;;;;;5090873;28;20328;-80
2022/12/31 06:06:11;;;;;;;;;;;6.90;99.90;;;;;;5091261;28;19908;-80
2022/12/31 06:08:36;;;;;;;;;;;6.90;99.90;;;;;;5090471;28;19994;-81
2022/12/31 06:11:02;;;;;;;;;;;7.00;99.90;;;;;;5091108;28;19912;-80
2022/12/31 06:13:28;;;;;;;;;;;7.00;99.90;;;;;;5090822;28;19959;-80
2022/12/31 06:15:53;;;;;;;;;;;7.00;99.90;;;;;;5091146;28;19915;-80
2022/12/31 06:18:19;;;;;;;;;;;7.00;99.90;;;;;;5092058;28;19966;-80
2022/12/31 06:20:44;;;;;;;;;;;7.00;99.90;;;;;;5095067;28;19912;-80
2022/12/31 06:23:10;;;;;;;;;;;7.00;99.90;;;;;;5095632;28;19908;-80
2022/12/31 06:25:38;;;;;;;;;;;7.00;99.90;;;;;;5094771;28;19992;-81
2022/12/31 06:28:04;;;;;;;;;;;7.00;99.90;;;;;;5095246;28;19909;-80
2022/12/31 06:30:30;;;;;;;;;;;7.00;99.90;;;;;;5094814;28;19912;-81
2022/12/31 06:32:55;;;;;;;;;;;7.00;99.90;;;;;;5106190;28;19947;-79
2022/12/31 06:35:21;;;;;;;;;;;7.00;99.90;;;;;;5114872;28;20002;-80
2022/12/31 06:37:47;;;;;;;;;;;7.00;99.90;;;;;;5076689;28;19912;-80
2022/12/31 06:40:12;;;;;;;;;;;7.10;99.90;;;;;;5095843;28;20334;-80
2022/12/31 06:42:38;;;;;;;;;;;7.10;99.90;;;;;;5094280;28;19912;-81
2022/12/31 06:45:04;;;;;;;;;;;7.00;99.90;;;;;;5095476;28;19915;-81
2022/12/31 06:47:29;;;;;;;;;;;7.00;99.90;;;;;;5094855;28;19915;-82
2022/12/31 06:49:55;;;;;;;;;;;7.10;99.90;;;;;;5095188;28;19931;-80
2022/12/31 06:52:21;;;;;;;;;;;7.10;99.90;;;;;;5095234;28;19922;-79
2022/12/31 06:54:47;;;;;;;;;;;7.10;99.90;;;;;;5094996;28;20655;-81
2022/12/31 06:57:12;;;;;;;;;;;7.10;99.90;;;;;;5076817;28;19967;-82
2022/12/31 06:59:38;;;;;;;;;;;7.00;99.90;;;;;;5076465;28;20351;-81
2022/12/31 07:02:23;;;;;;;;;;;7.00;99.90;;;;;;5095101;28;19908;-81
2022/12/31 07:04:57;;;;;;;;;;;7.00;99.90;;;;;;5094639;28;19935;-81
2022/12/31 07:07:25;;;;;;;;;;;7.10;99.90;;;;;;5094679;28;19915;-81
2022/12/31 07:10:09;;;;;;;;;;;7.00;99.90;;;;;;5094674;28;19970;-80
2022/12/31 07:12:38;;;;;;;;;;;7.10;99.90;;;;;;5093915;28;19912;-81
2022/12/31 07:15:03;;;;;;;;;;;7.00;99.90;;;;;;5094962;28;19963;-82
2022/12/31 07:17:48;;;;;;;;;;;7.00;99.90;;;;;;5076305;28;19908;-82
2022/12/31 07:20:15;;;;;;;;;;;7.10;99.90;;;;;;5095046;28;19918;-80
2022/12/31 07:22:41;;;;;;;;;;;7.00;99.90;;;;;;5100050;28;19919;-82
2022/12/31 07:25:07;;;;;;;;;;;7.00;99.90;;;;;;5112076;28;19908;-81
2022/12/31 07:27:44;;;;;;;;;;;7.00;99.90;;;;;;5094206;28;19912;-82
2022/12/31 07:30:11;;;;;;;;;;;7.00;99.90;;;;;;5094191;28;20356;-81
2022/12/31 07:32:55;;;;;;;;;;;7.00;99.90;;;;;;5095301;28;19918;-80
2022/12/31 07:35:40;;;;;;;;;;;7.10;99.90;;;;;;5094754;28;19912;-79
2022/12/31 07:38:18;;;;;;;;;;;7.10;99.90;;;;;;5112149;28;19908;-80
2022/12/31 07:41:02;;;;;;;;;;;7.10;99.90;;;;;;5111357;28;19908;-80
2022/12/31 07:43:46;;;;;;;;;;;7.10;99.90;;;;;;5093395;28;19909;-84
2022/12/31 07:46:18;;;;;;;;;;;7.10;99.90;;;;;;5092863;28;19908;-78
2022/12/31 07:48:43;;;;;;;;;;;7.10;99.90;;;;;;5108714;28;19946;-80
2022/12/31 07:51:10;;;;;;;;;;;7.10;99.90;;;;;;5105796;28;19912;-79
2022/12/31 07:53:35;;;;;;;;;;;7.10;99.90;;;;;;5105384;28;19923;-78
2022/12/31 07:56:02;;;;;;;;;;;7.10;99.90;;;;;;5105873;28;19908;-79
2022/12/31 07:58:37;;;;;;;;;;;7.10;99.90;;;;;;5097302;28;20486;-79
2022/12/31 08:01:03;;;;;;;;;;;7.10;99.90;;;;;;5098799;28;19908;-78
2022/12/31 08:03:31;;;;;;;;;;;7.10;99.90;;;;;;5078846;28;20361;-79
2022/12/31 08:06:06;;;;;;;;;;;7.10;99.90;;;;;;5096836;28;20203;-79
2022/12/31 08:08:35;;;;;;;;;;;7.10;99.90;;;;;;5096188;28;20333;-82
2022/12/31 08:11:03;;;;;;;;;;;7.10;99.90;;;;;;5098510;28;19911;-79
2022/12/31 08:13:29;;;;;;;;;;;7.10;99.90;;;;;;5097550;28;19923;-80
2022/12/31 08:15:55;;;;;;;;;;;7.10;99.90;;;;;;5080520;28;19908;-80
2022/12/31 08:18:20;;;;;;;;;;;7.00;99.90;;;;;;5097436;28;19908;-80
2022/12/31 08:20:52;;;;;;;;;;;7.00;99.90;;;;;;5096139;28;19969;-83
2022/12/31 08:23:27;;;;;;;;;;;7.00;99.90;;;;;;5096734;28;19919;-82
2022/12/31 08:26:11;;;;;;;;;;;7.00;99.90;;;;;;5096166;28;20234;-81
2022/12/31 08:28:42;;;;;;;;;;;7.00;99.90;;;;;;5096110;28;19919;-83
2022/12/31 08:31:13;;;;;;;;;;;7.00;99.90;;;;;;5098182;28;19916;-82
2022/12/31 08:33:47;;;;;;;;;;;7.10;99.90;;;;;;5106676;28;19927;-82
2022/12/31 08:36:15;;;;;;;;;;;7.00;99.90;;;;;;5110566;28;19908;-82
2022/12/31 08:38:41;;;;;;;;;;;7.00;99.90;;;;;;5116131;28;19947;-83
2022/12/31 08:41:19;;;;;;;;;;;7.00;99.90;;;;;;5115165;28;19915;-83
2022/12/31 08:43:44;;;;;;;;;;;7.00;99.90;;;;;;5114935;28;20045;-83
2022/12/31 08:46:17;;;;;;;;;;;7.00;99.90;;;;;;5087981;28;19992;-82
2022/12/31 08:48:44;;;;;;;;;;;7.00;99.90;;;;;;5103112;28;19952;-84
2022/12/31 08:51:23;;;;;;;;;;;7.00;99.90;;;;;;5108096;28;19960;-80
2022/12/31 08:53:48;;;;;;;;;;;7.00;99.90;;;;;;5100283;28;20373;-81
2022/12/31 08:56:23;;;;;;;;;;;7.00;99.90;;;;;;5106652;28;19961;-82
2022/12/31 08:58:56;;;;;;;;;;;7.00;99.90;;;;;;5111491;28;19995;-82
2022/12/31 09:01:24;;;;;;;;;;;7.00;99.90;;;;;;5114219;28;19950;-81
2022/12/31 09:04:00;;;;;;;;;;;7.00;99.90;;;;;;5114334;28;19962;-81
2022/12/31 09:06:28;;;;;;;;;;;7.00;99.90;;;;;;5114192;28;19908;-81
2022/12/31 09:08:59;;;;;;;;;;;7.00;99.90;;;;;;5092262;28;19924;-81
2022/12/31 09:11:48;;;;;;;;;;;6.90;99.90;;;;;;5093850;28;19920;-82
2022/12/31 09:14:13;;;;;;;;;;;7.00;99.90;;;;;;5093536;28;20254;-81
2022/12/31 09:16:57;;;;;;;;;;;7.00;99.90;;;;;;5092793;28;19940;-82
2022/12/31 09:19:23;;;;;;;;;;;7.00;99.90;;;;;;5093634;28;19916;-81
2022/12/31 09:21:49;;;;;;;;;;;7.00;99.90;;;;;;5092242;28;20378;-81
2022/12/31 09:24:14;;;;;;;;;;;7.00;99.90;;;;;;5092739;28;19908;-80
2022/12/31 09:26:59;;;;;;;;;;;7.00;99.90;;;;;;5073638;28;19960;-82
2022/12/31 09:29:36;;;;;;;;;;;7.10;99.90;;;;;;5092853;28;19908;-81
2022/12/31 09:32:11;;;;;;;;;;;7.10;99.90;;;;;;5090856;28;20281;-79
2022/12/31 09:34:39;;;;;;;;;;;7.10;99.90;;;;;;5091981;28;19919;-84
2022/12/31 09:37:16;;;;;;;;;;;7.20;99.90;;;;;;5092252;28;19915;-81
2022/12/31 09:39:43;;;;;;;;;;;7.20;99.90;;;;;;5089969;28;20037;-81
2022/12/31 09:42:31;;;;;;;;;;;7.20;99.90;;;;;;5092104;28;20043;-81
2022/12/31 09:45:06;;;;;;;;;;;7.20;99.90;;;;;;5092037;28;19911;-81
2022/12/31 09:47:41;;;;;;;;;;;7.30;99.90;;;;;;5091457;28;19979;-81
2022/12/31 09:50:25;;;;;;;;;;;7.30;99.90;;;;;;5091907;28;20335;-81
2022/12/31 09:53:09;;;;;;;;;;;7.30;99.90;;;;;;5091757;28;19957;-81
2022/12/31 09:55:35;;;;;;;;;;;7.40;99.90;;;;;;5091864;28;19908;-82
2022/12/31 09:58:06;;;;;;;;;;;7.40;99.90;;;;;;5090966;28;19960;-82
2022/12/31 10:00:52;;;;;;;;;;;7.40;99.90;;;;;;5092352;28;19928;-82
2022/12/31 10:03:27;;;;;;;;;;;7.40;99.90;;;;;;5091640;28;19998;-84
2022/12/31 10:05:55;;;;;;;;;;;7.40;99.90;;;;;;5092700;28;20345;-84
2022/12/31 10:08:44;;;;;;;;;;;7.40;99.90;;;;;;5092585;28;19954;-83
2022/12/31 10:11:09;;;;;;;;;;;7.40;99.90;;;;;;5091851;28;20314;-80
2022/12/31 10:13:41;;;;;;;;;;;7.50;99.90;;;;;;5091885;28;19908;-81
2022/12/31 10:16:07;;;;;;;;;;;7.50;99.90;;;;;;5091957;28;19908;-81
2022/12/31 10:18:36;;;;;;;;;;;7.50;99.90;;;;;;5091929;28;19915;-80
2022/12/31 10:21:17;;;;;;;;;;;7.50;99.90;;;;;;5089860;28;19958;-81
2022/12/31 10:23:45;;;;;;;;;;;7.50;99.90;;;;;;5071189;28;19974;-79
2022/12/31 10:26:20;;;;;;;;;;;7.60;99.90;;;;;;5071681;28;19961;-78
2022/12/31 10:28:54;;;;;;;;;;;7.60;99.90;;;;;;5072267;28;20010;-84
2022/12/31 10:31:29;;;;;;;;;;;7.60;99.90;;;;;;5072221;28;20327;-84
2022/12/31 10:34:03;;;;;;;;;;;7.60;99.90;;;;;;5070902;28;19908;-83
2022/12/31 10:36:30;;;;;;;;;;;7.60;99.90;;;;;;5071524;28;19916;-84
2022/12/31 10:39:06;;;;;;;;;;;7.70;99.90;;;;;;5071398;28;19944;-81
2022/12/31 10:41:38;;;;;;;;;;;7.70;99.90;;;;;;5071852;28;19909;-83
2022/12/31 10:44:03;;;;;;;;;;;7.70;99.90;;;;;;5069440;28;19913;-82
2022/12/31 10:46:41;;;;;;;;;;;7.80;99.90;;;;;;5071508;28;20302;-81
2022/12/31 10:49:12;;;;;;;;;;;7.80;99.90;;;;;;5071348;28;19908;-81
2022/12/31 10:51:53;;;;;;;;;;;7.80;99.90;;;;;;5070952;28;19916;-81
2022/12/31 10:54:25;;;;;;;;;;;7.90;99.90;;;;;;5069609;28;20269;-82
2022/12/31 10:57:09;;;;;;;;;;;7.80;99.90;;;;;;5070470;28;20358;-81
2022/12/31 10:59:40;;;;;;;;;;;7.90;99.90;;;;;;5071141;28;19912;-82
2022/12/31 11:02:25;;;;;;;;;;;7.90;99.90;;;;;;5069196;28;19915;-81
2022/12/31 11:05:09;;;;;;;;;;;7.90;99.90;;;;;;5072244;28;20237;-81
2022/12/31 11:07:35;;;;;;;;;;;8.00;99.90;;;;;;5074464;28;20242;-81
2022/12/31 11:10:03;;;;;;;;;;;8.00;99.90;;;;;;5087457;28;19950;-80
2022/12/31 11:12:47;;;;;;;;;;;8.10;99.90;;;;;;5095000;28;19920;-80
2022/12/31 11:15:19;;;;;;;;;;;8.10;99.90;;;;;;5094827;28;20250;-80
2022/12/31 11:17:50;;;;;;;;;;;8.10;99.90;;;;;;5094716;28;19915;-82
2022/12/31 11:20:26;;;;;;;;;;;8.20;99.90;;;;;;5095354;28;19908;-80
2022/12/31 11:23:11;;;;;;;;;;;8.20;99.90;;;;;;5094375;28;19908;-81
2022/12/31 11:25:42;;;;;;;;;;;8.20;99.90;;;;;;5095164;28;19958;-80
2022/12/31 11:28:20;;;;;;;;;;;8.30;99.90;;;;;;5094724;28;20004;-80
2022/12/31 11:31:00;;;;;;;;;;;8.30;99.90;;;;;;5095703;28;19915;-83
2022/12/31 11:33:26;;;;;;;;;;;8.30;99.90;;;;;;5100179;28;19919;-81
2022/12/31 11:35:55;;;;;;;;;;;8.30;99.90;;;;;;5098948;28;19908;-82
2022/12/31 11:38:24;;;;;;;;;;;8.40;99.90;;;;;;5100009;28;19908;-81
2022/12/31 11:41:04;;;;;;;;;;;8.40;99.90;;;;;;5099004;28;19938;-81
2022/12/31 11:43:42;;;;;;;;;;;8.40;99.90;;;;;;5098032;28;19933;-81
2022/12/31 11:46:27;;;;;;;;;;;8.40;99.90;;;;;;5095639;28;19912;-81
2022/12/31 11:49:11;;;;;;;;;;;8.50;99.90;;;;;;5095432;28;19916;-81
2022/12/31 11:52:05;;;;;;;;;;;8.40;99.90;;;;;;5094684;28;19927;-81
2022/12/31 11:54:34;;;;;;;;;;;8.50;99.90;;;;;;5094423;28;19919;-81
2022/12/31 11:57:07;;;;;;;;;;;8.50;99.90;;;;;;5094273;28;19926;-80
2022/12/31 11:59:32;;;;;;;;;;;8.50;99.90;;;;;;5095339;28;19922;-80
2022/12/31 12:02:19;;;;;;;;;;;8.50;99.90;;;;;;5094146;28;20040;-80
2022/12/31 12:04:47;;;;;;;;;;;8.60;99.90;;;;;;5094828;28;20000;-85
2022/12/31 12:07:14;;;;;;;;;;;8.60;99.90;;;;;;5095036;28;19916;-80
2022/12/31 12:09:40;;;;;;;;;;;8.60;99.90;;;;;;5094853;28;19920;-80
2022/12/31 12:12:06;;;;;;;;;;;8.70;99.90;;;;;;5094902;28;19924;-80
2022/12/31 12:14:31;;;;;;;;;;;8.70;99.90;;;;;;5095113;28;19919;-80
2022/12/31 12:16:57;;;;;;;;;;;8.80;99.90;;;;;;5094398;28;19908;-79
2022/12/31 12:19:25;;;;;;;;;;;8.80;99.90;;;;;;5077094;28;20003;-79
2022/12/31 12:21:51;;;;;;;;;;;8.80;99.90;;;;;;5094113;28;20044;-80
2022/12/31 12:24:27;;;;;;;;;;;8.80;99.90;;;;;;5094576;28;19908;-80
2022/12/31 12:26:53;;;;;;;;;;;8.80;99.90;;;;;;5103259;28;20013;-80
2022/12/31 12:29:30;;;;;;;;;;;8.90;99.90;;;;;;5086636;28;19912;-80
2022/12/31 12:32:04;;;;;;;;;;;8.90;99.90;;;;;;5113380;28;19915;-79
2022/12/31 12:34:31;;;;;;;;;;;8.90;99.90;;;;;;5114212;28;20362;-79
2022/12/31 12:36:57;;;;;;;;;;;9.00;99.90;;;;;;5095561;28;19915;-79
2022/12/31 12:39:23;;;;;;;;;;;9.00;99.90;;;;;;5106893;28;19911;-79
2022/12/31 12:41:58;;;;;;;;;;;9.00;99.90;;;;;;5103519;28;20391;-83
2022/12/31 12:44:23;;;;;;;;;;;9.10;99.90;;;;;;5104219;28;19908;-80
2022/12/31 12:46:51;;;;;;;;;;;9.10;99.90;;;;;;5100889;28;19914;-85
2022/12/31 12:49:22;;;;;;;;;;;9.10;99.90;;;;;;5103772;28;20274;-80
2022/12/31 12:52:08;;;;;;;;;;;9.20;99.90;;;;;;5102509;28;19916;-85
2022/12/31 12:54:37;;;;;;;;;;;9.20;99.90;;;;;;5085429;28;19919;-79
2022/12/31 12:57:02;;;;;;;;;;;9.20;99.90;;;;;;5083145;28;20283;-80
2022/12/31 12:59:28;;;;;;;;;;;9.30;99.90;;;;;;5101853;28;19922;-80
2022/12/31 13:01:59;;;;;;;;;;;9.30;99.90;;;;;;5109306;28;20364;-79
2022/12/31 13:04:25;;;;;;;;;;;9.30;99.90;;;;;;5098972;28;19915;-78
2022/12/31 13:06:50;;;;;;;;;;;9.30;99.90;;;;;;5106425;28;19912;-82
2022/12/31 13:09:34;;;;;;;;;;;9.30;99.90;;;;;;5096204;28;19924;-79
2022/12/31 13:12:06;;;;;;;;;;;9.30;99.90;;;;;;5094252;28;19970;-78
2022/12/31 13:14:36;;;;;;;;;;;9.30;99.90;;;;;;5104358;28;21568;-78
2022/12/31 13:17:02;;;;;;;;;;;9.40;99.90;;;;;;5104616;28;20030;-79
2022/12/31 13:19:28;;;;;;;;;;;9.40;99.90;;;;;;5097093;28;20354;-79
2022/12/31 13:22:03;;;;;;;;;;;9.50;99.90;;;;;;5092920;28;19966;-80
2022/12/31 13:24:47;;;;;;;;;;;9.50;99.90;;;;;;5092930;28;19958;-78
2022/12/31 13:27:17;;;;;;;;;;;9.60;99.90;;;;;;5103202;28;19934;-79
2022/12/31 13:29:44;;;;;;;;;;;9.60;99.90;;;;;;5113863;28;19908;-78
2022/12/31 13:32:14;;;;;;;;;;;9.70;99.90;;;;;;5125496;28;19912;-78
2022/12/31 13:34:42;;;;;;;;;;;9.80;99.90;;;;;;5126856;28;19911;-77
2022/12/31 13:37:23;;;;;;;;;;;9.80;99.90;;;;;;5126488;28;19908;-78
2022/12/31 13:39:50;;;;;;;;;;;9.90;99.90;;;;;;5129791;28;19965;-77
2022/12/31 13:42:19;;;;;;;;;;;9.90;99.90;;;;;;5133468;28;19969;-78
2022/12/31 13:44:55;;;;;;;;;;;10.00;99.90;;;;;;5133219;28;19906;-77
2022/12/31 13:47:45;;;;;;;;;;;10.00;99.90;;;;;;5133143;28;19943;-77
2022/12/31 13:50:16;;;;;;;;;;;10.00;99.90;;;;;;5114618;28;19908;-78
2022/12/31 13:52:45;;;;;;;;;;;10.00;99.90;;;;;;5113379;28;20353;-79
2022/12/31 13:55:29;;;;;;;;;;;10.00;99.90;;;;;;5112996;28;19911;-80
2022/12/31 13:58:13;;;;;;;;;;;10.00;99.90;;;;;;5094820;28;19958;-80
2022/12/31 14:00:41;;;;;;;;;;;10.00;99.90;;;;;;5113283;28;19919;-79
2022/12/31 14:03:10;;;;;;;;;;;10.00;99.90;;;;;;5112943;28;19964;-78
2022/12/31 14:05:41;;;;;;;;;;;10.00;99.90;;;;;;5112741;28;20360;-79
2022/12/31 14:08:07;;;;;;;;;;;10.00;99.90;;;;;;5112745;28;19915;-79
2022/12/31 14:10:48;;;;;;;;;;;10.00;99.90;;;;;;5112472;28;19920;-79
2022/12/31 14:13:22;;;;;;;;;;;10.00;99.90;;;;;;5093042;28;20006;-79
2022/12/31 14:16:02;;;;;;;;;;;10.00;99.90;;;;;;5111519;28;19908;-79
2022/12/31 14:18:45;;;;;;;;;;;10.00;99.90;;;;;;5111357;28;20348;-79
2022/12/31 14:21:15;;;;;;;;;;;10.00;99.90;;;;;;5111037;28;19908;-79
2022/12/31 14:23:47;;;;;;;;;;;10.00;99.90;;;;;;5111857;28;19915;-81
2022/12/31 14:26:12;;;;;;;;;;;10.00;99.90;;;;;;5110909;28;19908;-80
2022/12/31 14:28:47;;;;;;;;;;;10.00;99.90;;;;;;5111877;28;19941;-80
2022/12/31 14:31:15;;;;;;;;;;;10.00;99.90;;;;;;5110883;28;20395;-81
2022/12/31 14:34:00;;;;;;;;;;;10.00;99.90;;;;;;5111524;28;19911;-80
2022/12/31 14:36:25;;;;;;;;;;;10.00;99.90;;;;;;5111706;28;20001;-80
2022/12/31 14:38:51;;;;;;;;;;;10.10;99.90;;;;;;5111254;28;19916;-79
2022/12/31 14:41:26;;;;;;;;;;;10.10;99.90;;;;;;5114814;28;20251;-80
2022/12/31 14:43:51;;;;;;;;;;;10.10;99.90;;;;;;5108538;28;19971;-80
2022/12/31 14:46:29;;;;;;;;;;;10.10;99.90;;;;;;5100553;28;19963;-80
2022/12/31 14:49:01;;;;;;;;;;;10.00;99.90;;;;;;5083677;28;19908;-80
2022/12/31 14:51:27;;;;;;;;;;;10.10;99.90;;;;;;5101457;28;19912;-79
2022/12/31 14:53:55;;;;;;;;;;;10.00;99.90;;;;;;5106507;28;19919;-80
2022/12/31 14:56:32;;;;;;;;;;;10.10;99.90;;;;;;5104043;28;19912;-79
2022/12/31 14:58:58;;;;;;;;;;;10.00;99.90;;;;;;5071962;28;19983;-85